createdAt,value
2018-07-09T00:00:01.954Z,15.3
2018-07-09T00:05:02.468Z,15.2
2018-07-09T00:10:01.888Z,15.2
2018-07-09T00:15:02.176Z,15.1
2018-07-09T00:20:01.530Z,15
2018-07-09T00:25:02.511Z,15
2018-07-09T00:30:02.372Z,14.9
2018-07-09T00:35:01.717Z,14.8
2018-07-09T00:40:02.144Z,14.8
2018-07-09T00:45:01.598Z,14.7
2018-07-09T00:50:01.761Z,14.6
2018-07-09T00:55:01.850Z,14.5
2018-07-09T01:00:02.011Z,14.5
2018-07-09T01:05:01.443Z,14.4
2018-07-09T01:10:01.369Z,14.4
2018-07-09T01:15:02.021Z,14.3
2018-07-09T01:20:02.128Z,14.3
2018-07-09T01:25:01.349Z,14.2
2018-07-09T01:30:01.381Z,14.2
2018-07-09T01:35:01.974Z,14.1
2018-07-09T01:40:01.912Z,14.1
2018-07-09T01:45:01.894Z,14
2018-07-09T01:50:02.011Z,14
2018-07-09T01:55:01.704Z,13.9
2018-07-09T02:00:02.481Z,13.8
2018-07-09T02:05:01.598Z,13.8
2018-07-09T02:10:01.814Z,13.8
2018-07-09T02:15:01.867Z,13.7
2018-07-09T02:20:01.359Z,13.7
2018-07-09T02:25:02.076Z,13.7
2018-07-09T02:30:01.573Z,13.7
2018-07-09T02:35:02.385Z,13.6
2018-07-09T02:40:01.323Z,13.6
2018-07-09T02:45:01.531Z,13.5
2018-07-09T02:50:01.479Z,13.5
2018-07-09T02:55:01.889Z,13.4
2018-07-09T03:00:01.213Z,13.4
2018-07-09T03:05:01.775Z,13.4
2018-07-09T03:10:02.326Z,13.4
2018-07-09T03:15:01.855Z,13.5
2018-07-09T03:20:01.226Z,13.6
2018-07-09T03:25:01.879Z,13.7
2018-07-09T03:30:01.786Z,13.8
2018-07-09T03:35:01.853Z,13.9
2018-07-09T03:40:02.172Z,13.9
2018-07-09T03:45:01.407Z,14
2018-07-09T03:50:01.366Z,14
2018-07-09T03:55:01.487Z,14.1
2018-07-09T04:00:02.136Z,14.1
2018-07-09T04:05:01.686Z,14.1
2018-07-09T04:10:01.992Z,14.1
2018-07-09T04:15:02.008Z,14.2
2018-07-09T04:20:01.339Z,14.2
2018-07-09T04:25:01.706Z,14.3
2018-07-09T04:30:02.068Z,14.4
2018-07-09T04:35:01.976Z,14.5
2018-07-09T04:40:02.314Z,14.7
2018-07-09T04:45:01.518Z,14.8
2018-07-09T04:50:01.193Z,15
2018-07-09T04:55:01.491Z,15.2
2018-07-09T05:00:01.744Z,15.2
2018-07-09T05:05:02.204Z,15.4
2018-07-09T05:10:01.468Z,15.5
2018-07-09T05:15:01.850Z,15.7
2018-07-09T05:20:01.325Z,16
2018-07-09T05:25:01.683Z,16.2
2018-07-09T05:30:02.520Z,16.3
2018-07-09T05:35:01.884Z,16.6
2018-07-09T05:40:01.909Z,16.6
2018-07-09T05:45:01.373Z,16.9
2018-07-09T05:50:02.273Z,17.1
2018-07-09T05:55:02.114Z,17.4
2018-07-09T06:00:01.728Z,17.5
2018-07-09T06:05:01.812Z,17.6
2018-07-09T06:10:02.004Z,17.7
2018-07-09T06:15:02.037Z,17.9
2018-07-09T06:20:01.359Z,17.9
2018-07-09T06:25:01.925Z,18
2018-07-09T06:30:01.368Z,18.3
2018-07-09T06:35:01.932Z,18.9
2018-07-09T06:40:02.018Z,18.9
2018-07-09T06:45:01.837Z,18.8
2018-07-09T06:50:01.986Z,18.4
2018-07-09T06:55:02.321Z,18.3
2018-07-09T07:00:01.616Z,18.2
2018-07-09T07:05:01.550Z,18.3
2018-07-09T07:10:01.436Z,18.6
2018-07-09T07:15:02.047Z,19.1
2018-07-09T07:20:01.286Z,19.4
2018-07-09T07:25:01.649Z,19.6
2018-07-09T07:30:02.363Z,19.6
2018-07-09T07:35:01.962Z,19.9
2018-07-09T07:40:01.861Z,20
2018-07-09T07:45:01.508Z,20.2
2018-07-09T07:50:02.166Z,20.4
2018-07-09T07:55:02.089Z,20.4
2018-07-09T08:00:01.589Z,20.6
2018-07-09T08:05:01.712Z,20.6
2018-07-09T08:10:03.674Z,20.9
2018-07-09T08:15:03.065Z,21
2018-07-09T08:20:02.686Z,20.9
2018-07-09T08:25:02.839Z,21.4
2018-07-09T08:30:03.348Z,21.9
2018-07-09T08:35:02.424Z,21.9
2018-07-09T08:40:02.596Z,21.8
2018-07-09T08:45:02.021Z,22.6
2018-07-09T08:50:01.977Z,22.9
2018-07-09T08:55:02.026Z,23.2
2018-07-09T09:00:01.508Z,23.5
2018-07-09T09:05:01.251Z,23.7
2018-07-09T09:10:02.252Z,23.5
2018-07-09T09:15:01.707Z,23.2
2018-07-09T09:20:01.557Z,23.4
2018-07-09T09:25:01.946Z,23.5
2018-07-09T09:30:01.931Z,23.3
2018-07-09T09:35:01.719Z,22.8
2018-07-09T09:40:01.549Z,22.6
2018-07-09T09:45:02.407Z,22.4
2018-07-09T09:50:01.838Z,22.4
2018-07-09T09:55:01.526Z,22.4
2018-07-09T10:00:01.284Z,22.9
2018-07-09T10:05:01.467Z,23.5
2018-07-09T10:10:01.541Z,23.3
2018-07-09T10:15:01.482Z,23.2
2018-07-09T10:20:01.840Z,22.8
2018-07-09T10:25:01.567Z,22.1
2018-07-09T10:30:02.115Z,22.4
2018-07-09T10:35:01.186Z,22.3
2018-07-09T10:40:02.378Z,22.1
2018-07-09T10:45:01.715Z,21.9
2018-07-09T10:50:01.879Z,21.6
2018-07-09T10:55:01.742Z,21.2
2018-07-09T11:00:02.330Z,20.9
2018-07-09T11:05:01.320Z,20.7
2018-07-09T11:10:01.575Z,20.2
2018-07-09T11:15:02.032Z,19.8
2018-07-09T11:20:02.295Z,19.7
2018-07-09T11:25:02.126Z,19.4
2018-07-09T11:30:01.718Z,19.3
2018-07-09T11:35:01.487Z,19.3
2018-07-09T11:40:02.045Z,19.4
2018-07-09T11:45:02.016Z,20.4
2018-07-09T11:50:01.326Z,20.5
2018-07-09T11:55:02.302Z,20.4
2018-07-09T12:00:01.878Z,20.1
2018-07-09T12:05:01.291Z,20.2
2018-07-09T12:10:01.528Z,20.5
2018-07-09T12:15:02.503Z,21.1
2018-07-09T12:20:02.005Z,21.4
2018-07-09T12:25:01.343Z,21.5
2018-07-09T12:30:02.998Z,21.2
2018-07-09T12:35:02.007Z,21.2
2018-07-09T12:40:02.053Z,21
2018-07-09T12:45:01.167Z,20.8
2018-07-09T12:50:01.422Z,20.7
2018-07-09T12:55:02.036Z,20.6
2018-07-09T13:00:01.464Z,20.4
2018-07-09T13:05:02.365Z,20.4
2018-07-09T13:10:01.285Z,20.5
2018-07-09T13:15:01.876Z,20.2
2018-07-09T13:20:02.476Z,20.1
2018-07-09T13:25:01.347Z,20
2018-07-09T13:30:02.045Z,20
2018-07-09T13:35:01.195Z,19.9
2018-07-09T13:40:01.873Z,19.7
2018-07-09T13:45:02.170Z,19.8
2018-07-09T13:50:01.370Z,19.7
2018-07-09T13:55:01.774Z,19.7
2018-07-09T14:00:01.752Z,19.6
2018-07-09T14:05:02.006Z,19.6
2018-07-09T14:10:01.564Z,19.7
2018-07-09T14:15:01.874Z,19.9
2018-07-09T14:20:01.718Z,19.7
2018-07-09T14:25:02.270Z,19.6
2018-07-09T14:30:01.932Z,19.6
2018-07-09T14:35:01.797Z,19.6
2018-07-09T14:40:01.611Z,19.6
2018-07-09T14:45:02.127Z,19.8
2018-07-09T14:50:02.114Z,20
2018-07-09T14:55:02.029Z,20.1
2018-07-09T15:00:01.414Z,20.5
2018-07-09T15:05:01.686Z,20.9
2018-07-09T15:10:01.527Z,20.8
2018-07-09T15:15:01.222Z,20.6
2018-07-09T15:20:02.449Z,20.1
2018-07-09T15:25:01.488Z,20
2018-07-09T15:30:01.295Z,19.9
2018-07-09T15:35:02.002Z,19.8
2018-07-09T15:40:01.937Z,19.6
2018-07-09T15:45:01.597Z,19.3
2018-07-09T15:50:01.693Z,19.2
2018-07-09T15:55:02.403Z,19.1
2018-07-09T16:00:02.113Z,19.1
2018-07-09T16:05:01.839Z,19.2
2018-07-09T16:10:02.368Z,19.2
2018-07-09T16:15:01.177Z,19.5
2018-07-09T16:20:02.028Z,19.4
2018-07-09T16:25:01.512Z,19.4
2018-07-09T16:30:02.618Z,19.3
2018-07-09T16:35:02.235Z,19
2018-07-09T16:40:01.971Z,18.7
2018-07-09T16:45:02.547Z,18.5
2018-07-09T16:50:02.052Z,18.3
2018-07-09T16:55:01.309Z,18.1
2018-07-09T17:00:01.380Z,17.9
2018-07-09T17:05:01.573Z,17.8
2018-07-09T17:10:01.577Z,17.7
2018-07-09T17:15:01.929Z,17.6
2018-07-09T17:20:02.614Z,17.7
2018-07-09T17:25:01.454Z,17.6
2018-07-09T17:30:01.219Z,17.6
2018-07-09T17:35:01.955Z,17.6
2018-07-09T17:40:01.706Z,17.5
2018-07-09T17:45:01.485Z,17.5
2018-07-09T17:50:01.649Z,17.3
2018-07-09T17:55:02.316Z,17.2
2018-07-09T18:00:01.725Z,17
2018-07-09T18:05:01.798Z,16.8
2018-07-09T18:10:01.581Z,16.8
2018-07-09T18:15:01.801Z,16.8
2018-07-09T18:20:02.334Z,16.7
2018-07-09T18:25:02.308Z,16.6
2018-07-09T18:30:01.823Z,16.6
2018-07-09T18:35:01.793Z,16.5
2018-07-09T18:40:01.265Z,16.5
2018-07-09T18:45:01.718Z,16.4
2018-07-09T18:50:01.669Z,16.4
2018-07-09T18:55:01.626Z,16.3
2018-07-09T19:00:01.404Z,16.3
2018-07-09T19:05:01.624Z,16.3
2018-07-09T19:10:02.011Z,16.3
2018-07-09T19:15:02.089Z,16.3
2018-07-09T19:20:01.944Z,16.1
2018-07-09T19:25:02.487Z,16.1
2018-07-09T19:30:01.385Z,16
2018-07-09T19:35:02.114Z,15.9
2018-07-09T19:40:02.040Z,15.8
2018-07-09T19:45:02.198Z,15.7
2018-07-09T19:50:02.597Z,15.6
2018-07-09T19:55:01.544Z,15.5
2018-07-09T20:00:01.392Z,15.3
2018-07-09T20:05:01.337Z,15.3
2018-07-09T20:10:01.863Z,15.2
2018-07-09T20:15:01.257Z,15.1
2018-07-09T20:20:01.316Z,15
2018-07-09T20:25:01.679Z,15
2018-07-09T20:30:01.538Z,14.9
2018-07-09T20:35:01.763Z,14.9
2018-07-09T20:40:02.376Z,14.8
2018-07-09T20:45:01.562Z,14.8
2018-07-09T20:50:01.809Z,14.7
2018-07-09T20:55:01.538Z,14.7
2018-07-09T21:00:02.424Z,14.7
2018-07-09T21:05:01.222Z,14.6
2018-07-09T21:10:01.999Z,14.6
2018-07-09T21:15:01.603Z,14.5
2018-07-09T21:20:01.518Z,14.4
2018-07-09T21:25:01.849Z,14.3
2018-07-09T21:30:01.363Z,14.2
2018-07-09T21:35:02.004Z,14.1
2018-07-09T21:40:02.157Z,14.1
2018-07-09T21:45:02.029Z,14
2018-07-09T21:50:01.992Z,14
2018-07-09T21:55:01.824Z,13.9
2018-07-09T22:00:01.267Z,13.9
2018-07-09T22:05:01.965Z,13.8
2018-07-09T22:10:01.974Z,13.7
2018-07-09T22:15:01.736Z,13.6
2018-07-09T22:20:01.298Z,13.6
2018-07-09T22:25:01.778Z,13.6
2018-07-09T22:30:01.513Z,13.6
2018-07-09T22:35:01.257Z,13.5
2018-07-09T22:40:02.378Z,13.5
2018-07-09T22:45:01.962Z,13.5
2018-07-09T22:50:01.892Z,13.6
2018-07-09T22:55:02.498Z,13.5
2018-07-09T23:00:01.247Z,13.4
2018-07-09T23:05:01.875Z,13.4
2018-07-09T23:10:01.735Z,13.3
2018-07-09T23:15:02.438Z,13.3
2018-07-09T23:20:01.972Z,13.2
2018-07-09T23:25:01.838Z,12.9
2018-07-09T23:30:01.715Z,12.9
2018-07-09T23:35:02.461Z,12.9
2018-07-09T23:40:02.167Z,12.9
2018-07-09T23:45:02.174Z,12.9
2018-07-09T23:50:01.622Z,12.9
2018-07-09T23:55:02.091Z,12.9
